sensor_id;sensor_type;location;lat;lon;timestamp;temperature;humidity
4390;DHT22;2209;48.982;8.406;2023-03-13T00:01:17;12.10;99.90
4390;DHT22;2209;48.982;8.406;2023-03-13T00:03:40;12.10;99.90
4390;DHT22;2209;48.982;8.406;2023-03-13T00:06:02;12.10;99.90
4390;DHT22;2209;48.982;8.406;2023-03-13T00:08:24;12.10;99.90
4390;DHT22;2209;48.982;8.406;2023-03-13T00:10:49;12.10;99.90
4390;DHT22;2209;48.982;8.406;2023-03-13T00:13:11;12.10;99.90
4390;DHT22;2209;48.982;8.406;2023-03-13T00:15:33;12.10;99.90
4390;DHT22;2209;48.982;8.406;2023-03-13T00:17:57;12.10;99.90
4390;DHT22;2209;48.982;8.406;2023-03-13T00:20:19;12.20;99.90
4390;DHT22;2209;48.982;8.406;2023-03-13T00:22:41;12.20;99.90
4390;DHT22;2209;48.982;8.406;2023-03-13T00:25:03;12.20;99.90
4390;DHT22;2209;48.982;8.406;2023-03-13T00:27:25;12.20;99.90
4390;DHT22;2209;48.982;8.406;2023-03-13T00:29:47;12.20;99.90
4390;DHT22;2209;48.982;8.406;2023-03-13T00:32:10;12.20;99.90
4390;DHT22;2209;48.982;8.406;2023-03-13T00:34:33;12.20;99.90
4390;DHT22;2209;48.982;8.406;2023-03-13T00:36:56;12.20;99.90
4390;DHT22;2209;48.982;8.406;2023-03-13T00:39:18;12.20;99.90
4390;DHT22;2209;48.982;8.406;2023-03-13T00:41:40;12.20;99.90
4390;DHT22;2209;48.982;8.406;2023-03-13T00:44:02;12.20;99.90
4390;DHT22;2209;48.982;8.406;2023-03-13T00:46:26;12.20;99.90
4390;DHT22;2209;48.982;8.406;2023-03-13T00:48:49;12.20;99.90
4390;DHT22;2209;48.982;8.406;2023-03-13T00:51:13;12.30;99.90
4390;DHT22;2209;48.982;8.406;2023-03-13T00:53:36;12.30;99.90
4390;DHT22;2209;48.982;8.406;2023-03-13T00:56:00;12.30;99.90
4390;DHT22;2209;48.982;8.406;2023-03-13T00:58:23;12.30;99.90
4390;DHT22;2209;48.982;8.406;2023-03-13T01:00:46;12.30;99.90
4390;DHT22;2209;48.982;8.406;2023-03-13T01:03:08;12.30;99.90
4390;DHT22;2209;48.982;8.406;2023-03-13T01:05:30;12.30;99.90
4390;DHT22;2209;48.982;8.406;2023-03-13T01:07:53;12.30;99.90
4390;DHT22;2209;48.982;8.406;2023-03-13T01:10:15;12.30;99.90
4390;DHT22;2209;48.982;8.406;2023-03-13T01:12:38;12.30;99.90
4390;DHT22;2209;48.982;8.406;2023-03-13T01:15:00;12.30;99.90
4390;DHT22;2209;48.982;8.406;2023-03-13T01:17:22;12.30;99.90
4390;DHT22;2209;48.982;8.406;2023-03-13T01:19:44;12.40;99.90
4390;DHT22;2209;48.982;8.406;2023-03-13T01:22:06;12.40;99.90
4390;DHT22;2209;48.982;8.406;2023-03-13T01:24:32;12.40;99.90
4390;DHT22;2209;48.982;8.406;2023-03-13T01:26:54;12.40;99.90
4390;DHT22;2209;48.982;8.406;2023-03-13T01:29:16;12.40;99.90
4390;DHT22;2209;48.982;8.406;2023-03-13T01:31:38;12.40;99.90
4390;DHT22;2209;48.982;8.406;2023-03-13T01:34:02;12.40;99.90
4390;DHT22;2209;48.982;8.406;2023-03-13T01:36:25;12.40;99.90
4390;DHT22;2209;48.982;8.406;2023-03-13T01:38:48;12.40;99.90
4390;DHT22;2209;48.982;8.406;2023-03-13T01:41:12;12.50;99.90
4390;DHT22;2209;48.982;8.406;2023-03-13T01:43:35;12.50;99.90
4390;DHT22;2209;48.982;8.406;2023-03-13T01:46:00;12.50;99.90
4390;DHT22;2209;48.982;8.406;2023-03-13T01:48:28;12.60;99.90
4390;DHT22;2209;48.982;8.406;2023-03-13T01:50:53;12.60;99.90
4390;DHT22;2209;48.982;8.406;2023-03-13T01:53:15;12.60;99.90
4390;DHT22;2209;48.982;8.406;2023-03-13T01:55:37;12.60;99.90
4390;DHT22;2209;48.982;8.406;2023-03-13T01:58:01;12.60;99.90
4390;DHT22;2209;48.982;8.406;2023-03-13T02:00:26;12.70;99.90
4390;DHT22;2209;48.982;8.406;2023-03-13T02:02:51;12.70;99.90
4390;DHT22;2209;48.982;8.406;2023-03-13T02:05:15;12.70;99.90
4390;DHT22;2209;48.982;8.406;2023-03-13T02:07:40;12.70;99.90
4390;DHT22;2209;48.982;8.406;2023-03-13T02:10:04;12.70;99.90
4390;DHT22;2209;48.982;8.406;2023-03-13T02:12:30;12.70;99.90
4390;DHT22;2209;48.982;8.406;2023-03-13T02:14:55;12.60;99.90
4390;DHT22;2209;48.982;8.406;2023-03-13T02:17:19;12.60;99.90
4390;DHT22;2209;48.982;8.406;2023-03-13T02:19:44;12.70;99.90
4390;DHT22;2209;48.982;8.406;2023-03-13T02:22:13;12.60;99.90
4390;DHT22;2209;48.982;8.406;2023-03-13T02:24:41;12.60;99.90
4390;DHT22;2209;48.982;8.406;2023-03-13T02:27:07;12.60;99.90
4390;DHT22;2209;48.982;8.406;2023-03-13T02:29:29;12.60;99.90
4390;DHT22;2209;48.982;8.406;2023-03-13T02:31:52;12.60;99.90
4390;DHT22;2209;48.982;8.406;2023-03-13T02:34:17;12.60;99.90
4390;DHT22;2209;48.982;8.406;2023-03-13T02:36:41;12.60;99.90
4390;DHT22;2209;48.982;8.406;2023-03-13T02:39:06;12.60;99.90
4390;DHT22;2209;48.982;8.406;2023-03-13T02:41:28;12.50;99.90
4390;DHT22;2209;48.982;8.406;2023-03-13T02:43:52;12.50;99.90
4390;DHT22;2209;48.982;8.406;2023-03-13T02:46:16;12.60;99.90
4390;DHT22;2209;48.982;8.406;2023-03-13T02:48:40;12.60;99.90
4390;DHT22;2209;48.982;8.406;2023-03-13T02:51:04;12.60;99.90
4390;DHT22;2209;48.982;8.406;2023-03-13T02:53:27;12.60;99.90
4390;DHT22;2209;48.982;8.406;2023-03-13T02:55:49;12.60;99.90
4390;DHT22;2209;48.982;8.406;2023-03-13T02:58:11;12.60;99.90
4390;DHT22;2209;48.982;8.406;2023-03-13T03:00:35;12.60;99.90
4390;DHT22;2209;48.982;8.406;2023-03-13T03:02:57;12.60;99.90
4390;DHT22;2209;48.982;8.406;2023-03-13T03:05:19;12.60;99.90
4390;DHT22;2209;48.982;8.406;2023-03-13T03:07:41;12.60;99.90
4390;DHT22;2209;48.982;8.406;2023-03-13T03:10:04;12.60;99.90
4390;DHT22;2209;48.982;8.406;2023-03-13T03:12:27;12.60;99.90
4390;DHT22;2209;48.982;8.406;2023-03-13T03:14:49;12.60;99.90
4390;DHT22;2209;48.982;8.406;2023-03-13T03:17:12;12.60;99.90
4390;DHT22;2209;48.982;8.406;2023-03-13T03:19:34;12.60;99.90
4390;DHT22;2209;48.982;8.406;2023-03-13T03:21:57;12.60;99.90
4390;DHT22;2209;48.982;8.406;2023-03-13T03:24:19;12.60;99.90
4390;DHT22;2209;48.982;8.406;2023-03-13T03:26:41;12.70;99.90
4390;DHT22;2209;48.982;8.406;2023-03-13T03:29:03;12.70;99.90
4390;DHT22;2209;48.982;8.406;2023-03-13T03:31:25;12.70;99.90
4390;DHT22;2209;48.982;8.406;2023-03-13T03:33:48;12.70;99.90
4390;DHT22;2209;48.982;8.406;2023-03-13T03:36:12;12.70;99.90
4390;DHT22;2209;48.982;8.406;2023-03-13T03:38:35;12.70;99.90
4390;DHT22;2209;48.982;8.406;2023-03-13T03:40:58;12.70;99.90
4390;DHT22;2209;48.982;8.406;2023-03-13T03:43:20;12.70;99.90
4390;DHT22;2209;48.982;8.406;2023-03-13T03:45:42;12.70;99.90
4390;DHT22;2209;48.982;8.406;2023-03-13T03:48:04;12.70;99.90
4390;DHT22;2209;48.982;8.406;2023-03-13T03:50:28;12.70;99.90
4390;DHT22;2209;48.982;8.406;2023-03-13T03:52:50;12.70;99.90
4390;DHT22;2209;48.982;8.406;2023-03-13T03:55:12;12.70;99.90
4390;DHT22;2209;48.982;8.406;2023-03-13T03:57:34;12.70;99.90
4390;DHT22;2209;48.982;8.406;2023-03-13T03:59:56;12.70;99.90
4390;DHT22;2209;48.982;8.406;2023-03-13T04:02:18;12.70;99.90
4390;DHT22;2209;48.982;8.406;2023-03-13T04:04:40;12.70;99.90
4390;DHT22;2209;48.982;8.406;2023-03-13T04:07:04;12.70;99.90
4390;DHT22;2209;48.982;8.406;2023-03-13T04:09:26;12.70;99.90
4390;DHT22;2209;48.982;8.406;2023-03-13T04:11:48;12.70;99.90
4390;DHT22;2209;48.982;8.406;2023-03-13T04:14:10;12.70;99.90
4390;DHT22;2209;48.982;8.406;2023-03-13T04:16:32;12.80;99.90
4390;DHT22;2209;48.982;8.406;2023-03-13T04:18:54;12.70;99.90
4390;DHT22;2209;48.982;8.406;2023-03-13T04:21:16;12.70;99.90
4390;DHT22;2209;48.982;8.406;2023-03-13T04:23:39;12.80;99.90
4390;DHT22;2209;48.982;8.406;2023-03-13T04:26:01;12.80;99.90
4390;DHT22;2209;48.982;8.406;2023-03-13T04:28:23;12.80;99.90
4390;DHT22;2209;48.982;8.406;2023-03-13T04:30:45;12.80;99.90
4390;DHT22;2209;48.982;8.406;2023-03-13T04:33:07;12.80;99.90
4390;DHT22;2209;48.982;8.406;2023-03-13T04:35:29;12.80;99.90
4390;DHT22;2209;48.982;8.406;2023-03-13T04:37:52;12.80;99.90
4390;DHT22;2209;48.982;8.406;2023-03-13T04:40:15;12.80;99.90
4390;DHT22;2209;48.982;8.406;2023-03-13T04:42:37;12.90;99.90
4390;DHT22;2209;48.982;8.406;2023-03-13T04:44:59;12.90;99.90
4390;DHT22;2209;48.982;8.406;2023-03-13T04:47:22;12.90;99.90
4390;DHT22;2209;48.982;8.406;2023-03-13T04:49:44;12.90;99.90
4390;DHT22;2209;48.982;8.406;2023-03-13T04:52:06;12.90;99.90
4390;DHT22;2209;48.982;8.406;2023-03-13T04:54:28;12.90;99.90
4390;DHT22;2209;48.982;8.406;2023-03-13T04:56:52;12.90;99.90
4390;DHT22;2209;48.982;8.406;2023-03-13T04:59:14;12.90;99.90
4390;DHT22;2209;48.982;8.406;2023-03-13T05:01:36;12.90;99.90
4390;DHT22;2209;48.982;8.406;2023-03-13T05:03:59;12.90;99.90
4390;DHT22;2209;48.982;8.406;2023-03-13T05:06:21;12.90;99.90
4390;DHT22;2209;48.982;8.406;2023-03-13T05:08:43;12.90;99.90
4390;DHT22;2209;48.982;8.406;2023-03-13T05:11:05;13.00;99.90
4390;DHT22;2209;48.982;8.406;2023-03-13T05:13:28;13.00;99.90
4390;DHT22;2209;48.982;8.406;2023-03-13T05:15:50;13.00;99.90
4390;DHT22;2209;48.982;8.406;2023-03-13T05:18:13;13.00;99.90
4390;DHT22;2209;48.982;8.406;2023-03-13T05:20:35;13.00;99.90
4390;DHT22;2209;48.982;8.406;2023-03-13T05:22:57;12.90;99.90
4390;DHT22;2209;48.982;8.406;2023-03-13T05:25:19;12.90;99.90
4390;DHT22;2209;48.982;8.406;2023-03-13T05:27:42;12.90;99.90
4390;DHT22;2209;48.982;8.406;2023-03-13T05:30:06;12.90;99.90
4390;DHT22;2209;48.982;8.406;2023-03-13T05:32:29;12.90;99.90
4390;DHT22;2209;48.982;8.406;2023-03-13T05:34:51;12.90;99.90
4390;DHT22;2209;48.982;8.406;2023-03-13T05:37:14;12.90;99.90
4390;DHT22;2209;48.982;8.406;2023-03-13T05:39:36;12.90;99.90
4390;DHT22;2209;48.982;8.406;2023-03-13T05:41:58;12.90;99.90
4390;DHT22;2209;48.982;8.406;2023-03-13T05:44:20;12.90;99.90
4390;DHT22;2209;48.982;8.406;2023-03-13T05:46:43;12.90;99.90
4390;DHT22;2209;48.982;8.406;2023-03-13T05:49:05;12.90;99.90
4390;DHT22;2209;48.982;8.406;2023-03-13T05:51:27;12.90;99.90
4390;DHT22;2209;48.982;8.406;2023-03-13T05:53:49;12.90;99.90
4390;DHT22;2209;48.982;8.406;2023-03-13T05:56:11;12.90;99.90
4390;DHT22;2209;48.982;8.406;2023-03-13T05:58:33;12.90;99.90
4390;DHT22;2209;48.982;8.406;2023-03-13T06:00:56;13.00;99.90
4390;DHT22;2209;48.982;8.406;2023-03-13T06:03:19;13.00;99.90
4390;DHT22;2209;48.982;8.406;2023-03-13T06:05:41;12.90;99.90
4390;DHT22;2209;48.982;8.406;2023-03-13T06:08:04;12.90;99.90
4390;DHT22;2209;48.982;8.406;2023-03-13T06:10:27;12.90;99.90
4390;DHT22;2209;48.982;8.406;2023-03-13T06:12:52;13.00;99.90
4390;DHT22;2209;48.982;8.406;2023-03-13T06:15:14;13.00;99.90
4390;DHT22;2209;48.982;8.406;2023-03-13T06:17:36;13.00;99.90
4390;DHT22;2209;48.982;8.406;2023-03-13T06:20:00;13.00;99.90
4390;DHT22;2209;48.982;8.406;2023-03-13T06:22:22;13.00;99.90
4390;DHT22;2209;48.982;8.406;2023-03-13T06:24:44;13.00;99.90
4390;DHT22;2209;48.982;8.406;2023-03-13T06:27:09;13.00;99.90
4390;DHT22;2209;48.982;8.406;2023-03-13T06:29:31;13.00;99.90
4390;DHT22;2209;48.982;8.406;2023-03-13T06:31:53;13.00;99.90
4390;DHT22;2209;48.982;8.406;2023-03-13T06:34:16;13.00;99.90
4390;DHT22;2209;48.982;8.406;2023-03-13T06:36:39;13.00;99.90
4390;DHT22;2209;48.982;8.406;2023-03-13T06:39:02;13.00;99.90
4390;DHT22;2209;48.982;8.406;2023-03-13T06:41:24;13.00;99.90
4390;DHT22;2209;48.982;8.406;2023-03-13T06:43:47;13.00;99.90
4390;DHT22;2209;48.982;8.406;2023-03-13T06:46:15;13.00;99.90
4390;DHT22;2209;48.982;8.406;2023-03-13T06:48:37;13.00;99.90
4390;DHT22;2209;48.982;8.406;2023-03-13T06:51:00;13.00;99.90
4390;DHT22;2209;48.982;8.406;2023-03-13T06:53:23;13.00;99.90
4390;DHT22;2209;48.982;8.406;2023-03-13T06:55:45;13.00;99.90
4390;DHT22;2209;48.982;8.406;2023-03-13T06:58:08;13.00;99.90
4390;DHT22;2209;48.982;8.406;2023-03-13T07:00:30;13.00;99.90
4390;DHT22;2209;48.982;8.406;2023-03-13T07:02:54;13.00;99.90
4390;DHT22;2209;48.982;8.406;2023-03-13T07:05:16;13.00;99.90
4390;DHT22;2209;48.982;8.406;2023-03-13T07:07:38;13.00;99.90
4390;DHT22;2209;48.982;8.406;2023-03-13T07:10:02;13.00;99.90
4390;DHT22;2209;48.982;8.406;2023-03-13T07:12:24;13.00;99.90
4390;DHT22;2209;48.982;8.406;2023-03-13T07:14:46;13.10;99.90
4390;DHT22;2209;48.982;8.406;2023-03-13T07:17:08;13.10;99.90
4390;DHT22;2209;48.982;8.406;2023-03-13T07:19:30;13.10;99.90
4390;DHT22;2209;48.982;8.406;2023-03-13T07:21:52;13.10;99.90
4390;DHT22;2209;48.982;8.406;2023-03-13T07:24:17;13.10;99.90
4390;DHT22;2209;48.982;8.406;2023-03-13T07:26:40;13.10;99.90
4390;DHT22;2209;48.982;8.406;2023-03-13T07:29:02;13.20;99.90
4390;DHT22;2209;48.982;8.406;2023-03-13T07:31:25;13.20;99.90
4390;DHT22;2209;48.982;8.406;2023-03-13T07:33:47;13.20;99.90
4390;DHT22;2209;48.982;8.406;2023-03-13T07:36:13;13.20;99.90
4390;DHT22;2209;48.982;8.406;2023-03-13T07:38:36;13.20;99.90
4390;DHT22;2209;48.982;8.406;2023-03-13T07:40:58;13.30;99.90
4390;DHT22;2209;48.982;8.406;2023-03-13T07:43:22;13.30;99.90
4390;DHT22;2209;48.982;8.406;2023-03-13T07:45:55;13.30;99.90
4390;DHT22;2209;48.982;8.406;2023-03-13T07:48:17;13.30;99.90
4390;DHT22;2209;48.982;8.406;2023-03-13T07:50:39;13.30;99.90
4390;DHT22;2209;48.982;8.406;2023-03-13T07:53:01;13.30;99.90
4390;DHT22;2209;48.982;8.406;2023-03-13T07:55:23;13.40;99.90
4390;DHT22;2209;48.982;8.406;2023-03-13T07:57:45;13.40;99.90
4390;DHT22;2209;48.982;8.406;2023-03-13T08:00:10;13.40;99.90
4390;DHT22;2209;48.982;8.406;2023-03-13T08:02:36;13.40;99.90
4390;DHT22;2209;48.982;8.406;2023-03-13T08:04:58;13.50;99.90
4390;DHT22;2209;48.982;8.406;2023-03-13T08:07:20;13.50;99.90
4390;DHT22;2209;48.982;8.406;2023-03-13T08:09:42;13.50;99.90
4390;DHT22;2209;48.982;8.406;2023-03-13T08:12:05;13.60;99.90
4390;DHT22;2209;48.982;8.406;2023-03-13T08:14:27;13.60;99.90
4390;DHT22;2209;48.982;8.406;2023-03-13T08:16:50;13.70;99.90
4390;DHT22;2209;48.982;8.406;2023-03-13T08:19:12;13.70;99.90
4390;DHT22;2209;48.982;8.406;2023-03-13T08:21:36;13.70;99.90
4390;DHT22;2209;48.982;8.406;2023-03-13T08:23:59;13.70;99.90
4390;DHT22;2209;48.982;8.406;2023-03-13T08:26:25;13.80;99.90
4390;DHT22;2209;48.982;8.406;2023-03-13T08:28:52;13.80;99.90
4390;DHT22;2209;48.982;8.406;2023-03-13T08:31:16;13.90;99.90
4390;DHT22;2209;48.982;8.406;2023-03-13T08:33:41;13.90;99.90
4390;DHT22;2209;48.982;8.406;2023-03-13T08:36:11;13.90;99.90
4390;DHT22;2209;48.982;8.406;2023-03-13T08:38:33;13.90;99.90
4390;DHT22;2209;48.982;8.406;2023-03-13T08:40:55;13.90;99.90
4390;DHT22;2209;48.982;8.406;2023-03-13T08:43:17;13.90;99.90
4390;DHT22;2209;48.982;8.406;2023-03-13T08:45:39;13.90;99.90
4390;DHT22;2209;48.982;8.406;2023-03-13T08:48:01;13.90;99.90
4390;DHT22;2209;48.982;8.406;2023-03-13T08:50:25;13.90;99.90
4390;DHT22;2209;48.982;8.406;2023-03-13T08:52:47;13.90;99.90
4390;DHT22;2209;48.982;8.406;2023-03-13T08:55:09;13.90;99.90
4390;DHT22;2209;48.982;8.406;2023-03-13T08:57:31;14.00;99.90
4390;DHT22;2209;48.982;8.406;2023-03-13T08:59:53;14.00;99.90
4390;DHT22;2209;48.982;8.406;2023-03-13T09:02:15;14.00;99.90
4390;DHT22;2209;48.982;8.406;2023-03-13T09:04:41;14.00;99.90
4390;DHT22;2209;48.982;8.406;2023-03-13T09:07:04;14.10;99.90
4390;DHT22;2209;48.982;8.406;2023-03-13T09:09:27;14.00;99.90
4390;DHT22;2209;48.982;8.406;2023-03-13T09:11:49;14.10;99.90
4390;DHT22;2209;48.982;8.406;2023-03-13T09:14:11;14.10;99.90
4390;DHT22;2209;48.982;8.406;2023-03-13T09:16:34;14.10;99.90
4390;DHT22;2209;48.982;8.406;2023-03-13T09:18:57;14.10;99.90
4390;DHT22;2209;48.982;8.406;2023-03-13T09:21:21;14.20;99.90
4390;DHT22;2209;48.982;8.406;2023-03-13T09:23:45;14.20;99.90
4390;DHT22;2209;48.982;8.406;2023-03-13T09:26:07;14.20;99.90
4390;DHT22;2209;48.982;8.406;2023-03-13T09:28:30;14.30;99.90
4390;DHT22;2209;48.982;8.406;2023-03-13T09:30:53;14.30;99.90
4390;DHT22;2209;48.982;8.406;2023-03-13T09:33:15;14.40;99.90
4390;DHT22;2209;48.982;8.406;2023-03-13T09:35:38;14.40;99.90
4390;DHT22;2209;48.982;8.406;2023-03-13T09:38:00;14.50;99.90
4390;DHT22;2209;48.982;8.406;2023-03-13T09:40:25;14.60;99.90
4390;DHT22;2209;48.982;8.406;2023-03-13T09:42:51;14.60;99.90
4390;DHT22;2209;48.982;8.406;2023-03-13T09:45:17;14.60;99.90
4390;DHT22;2209;48.982;8.406;2023-03-13T09:47:45;14.60;99.90
4390;DHT22;2209;48.982;8.406;2023-03-13T09:50:12;14.70;99.90
4390;DHT22;2209;48.982;8.406;2023-03-13T09:52:38;14.70;99.90
4390;DHT22;2209;48.982;8.406;2023-03-13T09:55:04;14.80;99.90
4390;DHT22;2209;48.982;8.406;2023-03-13T09:57:32;14.80;99.90
4390;DHT22;2209;48.982;8.406;2023-03-13T09:59:58;14.80;99.90
4390;DHT22;2209;48.982;8.406;2023-03-13T10:02:27;14.80;99.90
4390;DHT22;2209;48.982;8.406;2023-03-13T10:04:52;14.80;99.90
4390;DHT22;2209;48.982;8.406;2023-03-13T10:07:17;14.90;99.90
4390;DHT22;2209;48.982;8.406;2023-03-13T10:09:42;14.90;99.90
4390;DHT22;2209;48.982;8.406;2023-03-13T10:12:07;14.90;99.90
4390;DHT22;2209;48.982;8.406;2023-03-13T10:14:41;15.00;99.90
4390;DHT22;2209;48.982;8.406;2023-03-13T10:17:08;15.00;99.90
4390;DHT22;2209;48.982;8.406;2023-03-13T10:19:35;15.00;99.90
4390;DHT22;2209;48.982;8.406;2023-03-13T10:22:01;15.10;99.90
4390;DHT22;2209;48.982;8.406;2023-03-13T10:24:31;15.10;99.90
4390;DHT22;2209;48.982;8.406;2023-03-13T10:26:56;15.00;99.90
4390;DHT22;2209;48.982;8.406;2023-03-13T10:29:21;15.10;99.90
4390;DHT22;2209;48.982;8.406;2023-03-13T10:31:51;15.10;99.90
4390;DHT22;2209;48.982;8.406;2023-03-13T10:34:14;15.10;99.90
4390;DHT22;2209;48.982;8.406;2023-03-13T10:36:41;15.10;99.90
4390;DHT22;2209;48.982;8.406;2023-03-13T10:39:07;15.20;99.90
4390;DHT22;2209;48.982;8.406;2023-03-13T10:41:36;15.20;99.90
4390;DHT22;2209;48.982;8.406;2023-03-13T10:44:00;15.20;99.90
4390;DHT22;2209;48.982;8.406;2023-03-13T10:46:25;15.20;99.90
4390;DHT22;2209;48.982;8.406;2023-03-13T10:48:49;15.20;99.90
4390;DHT22;2209;48.982;8.406;2023-03-13T10:51:20;15.30;99.90
4390;DHT22;2209;48.982;8.406;2023-03-13T10:53:42;15.30;99.90
4390;DHT22;2209;48.982;8.406;2023-03-13T10:56:10;15.30;99.90
4390;DHT22;2209;48.982;8.406;2023-03-13T10:58:34;15.30;99.90
4390;DHT22;2209;48.982;8.406;2023-03-13T11:01:09;15.30;99.90
4390;DHT22;2209;48.982;8.406;2023-03-13T11:03:35;15.30;99.90
4390;DHT22;2209;48.982;8.406;2023-03-13T11:06:01;15.30;99.90
4390;DHT22;2209;48.982;8.406;2023-03-13T11:08:25;15.30;99.90
4390;DHT22;2209;48.982;8.406;2023-03-13T11:10:53;15.40;99.90
4390;DHT22;2209;48.982;8.406;2023-03-13T11:13:26;15.40;99.90
4390;DHT22;2209;48.982;8.406;2023-03-13T11:15:53;15.50;99.90
4390;DHT22;2209;48.982;8.406;2023-03-13T11:18:23;15.50;99.90
4390;DHT22;2209;48.982;8.406;2023-03-13T11:20:46;15.50;99.90
4390;DHT22;2209;48.982;8.406;2023-03-13T11:23:17;15.60;99.90
4390;DHT22;2209;48.982;8.406;2023-03-13T11:25:45;15.60;99.90
4390;DHT22;2209;48.982;8.406;2023-03-13T11:28:27;15.70;99.90
4390;DHT22;2209;48.982;8.406;2023-03-13T11:31:01;15.70;99.90
4390;DHT22;2209;48.982;8.406;2023-03-13T11:33:28;15.70;99.90
4390;DHT22;2209;48.982;8.406;2023-03-13T11:35:59;15.80;99.90
4390;DHT22;2209;48.982;8.406;2023-03-13T11:38:27;15.90;99.90
4390;DHT22;2209;48.982;8.406;2023-03-13T11:40:58;16.00;99.90
4390;DHT22;2209;48.982;8.406;2023-03-13T11:43:31;16.00;99.90
4390;DHT22;2209;48.982;8.406;2023-03-13T11:46:07;16.00;99.90
4390;DHT22;2209;48.982;8.406;2023-03-13T11:48:47;16.10;99.90
4390;DHT22;2209;48.982;8.406;2023-03-13T11:51:15;16.20;99.90
4390;DHT22;2209;48.982;8.406;2023-03-13T11:53:58;16.20;99.90
4390;DHT22;2209;48.982;8.406;2023-03-13T11:56:27;16.30;99.90
4390;DHT22;2209;48.982;8.406;2023-03-13T11:59:04;16.40;99.90
4390;DHT22;2209;48.982;8.406;2023-03-13T12:01:32;16.50;99.90
4390;DHT22;2209;48.982;8.406;2023-03-13T12:03:59;16.60;99.90
4390;DHT22;2209;48.982;8.406;2023-03-13T12:06:28;16.60;99.90
4390;DHT22;2209;48.982;8.406;2023-03-13T12:08:56;16.70;99.90
4390;DHT22;2209;48.982;8.406;2023-03-13T12:11:22;16.70;99.90
4390;DHT22;2209;48.982;8.406;2023-03-13T12:13:50;16.80;99.90
4390;DHT22;2209;48.982;8.406;2023-03-13T12:16:18;16.90;99.90
4390;DHT22;2209;48.982;8.406;2023-03-13T12:18:43;16.90;99.90
4390;DHT22;2209;48.982;8.406;2023-03-13T12:21:14;16.90;99.90
4390;DHT22;2209;48.982;8.406;2023-03-13T12:23:42;17.00;99.90
4390;DHT22;2209;48.982;8.406;2023-03-13T12:26:12;17.10;99.90
4390;DHT22;2209;48.982;8.406;2023-03-13T12:28:38;17.10;99.90
4390;DHT22;2209;48.982;8.406;2023-03-13T12:31:09;17.10;99.90
4390;DHT22;2209;48.982;8.406;2023-03-13T12:33:37;17.10;99.90
4390;DHT22;2209;48.982;8.406;2023-03-13T12:36:05;17.10;99.90
4390;DHT22;2209;48.982;8.406;2023-03-13T12:38:35;17.10;99.90
4390;DHT22;2209;48.982;8.406;2023-03-13T12:41:07;17.10;99.90
4390;DHT22;2209;48.982;8.406;2023-03-13T12:43:38;17.20;99.90
4390;DHT22;2209;48.982;8.406;2023-03-13T12:46:12;17.20;99.90
4390;DHT22;2209;48.982;8.406;2023-03-13T12:49:03;17.30;99.90
4390;DHT22;2209;48.982;8.406;2023-03-13T12:51:39;17.40;99.90
4390;DHT22;2209;48.982;8.406;2023-03-13T12:57:09;17.60;99.90
4390;DHT22;2209;48.982;8.406;2023-03-13T12:59:37;17.70;99.90
4390;DHT22;2209;48.982;8.406;2023-03-13T13:02:02;17.70;99.90
4390;DHT22;2209;48.982;8.406;2023-03-13T13:04:41;17.70;99.90
4390;DHT22;2209;48.982;8.406;2023-03-13T13:07:05;17.70;99.90
4390;DHT22;2209;48.982;8.406;2023-03-13T13:09:29;17.80;99.90
4390;DHT22;2209;48.982;8.406;2023-03-13T13:11:53;17.70;99.90
4390;DHT22;2209;48.982;8.406;2023-03-13T13:17:37;17.70;99.90
4390;DHT22;2209;48.982;8.406;2023-03-13T13:20:25;17.70;99.90
4390;DHT22;2209;48.982;8.406;2023-03-13T13:22:50;17.70;99.90
4390;DHT22;2209;48.982;8.406;2023-03-13T13:25:28;17.70;99.90
4390;DHT22;2209;48.982;8.406;2023-03-13T13:27:50;17.70;99.90
4390;DHT22;2209;48.982;8.406;2023-03-13T13:30:30;17.70;99.90
4390;DHT22;2209;48.982;8.406;2023-03-13T13:32:54;17.70;99.90
4390;DHT22;2209;48.982;8.406;2023-03-13T13:37:56;17.90;99.90
4390;DHT22;2209;48.982;8.406;2023-03-13T13:40:37;18.00;99.90
4390;DHT22;2209;48.982;8.406;2023-03-13T13:43:01;18.10;99.90
4390;DHT22;2209;48.982;8.406;2023-03-13T13:45:29;18.10;99.90
4390;DHT22;2209;48.982;8.406;2023-03-13T13:48:27;18.20;99.90
4390;DHT22;2209;48.982;8.406;2023-03-13T13:53:56;18.40;99.90
4390;DHT22;2209;48.982;8.406;2023-03-13T13:56:37;18.50;99.90
4390;DHT22;2209;48.982;8.406;2023-03-13T13:59:03;18.60;99.90
4390;DHT22;2209;48.982;8.406;2023-03-13T14:01:26;18.60;99.90
4390;DHT22;2209;48.982;8.406;2023-03-13T14:03:50;18.70;99.90
4390;DHT22;2209;48.982;8.406;2023-03-13T14:06:16;18.70;99.90
4390;DHT22;2209;48.982;8.406;2023-03-13T14:08:40;18.80;99.90
4390;DHT22;2209;48.982;8.406;2023-03-13T14:11:13;18.80;99.90
4390;DHT22;2209;48.982;8.406;2023-03-13T14:13:41;18.90;99.90
4390;DHT22;2209;48.982;8.406;2023-03-13T14:16:19;19.00;99.90
4390;DHT22;2209;48.982;8.406;2023-03-13T14:18:42;19.10;99.90
4390;DHT22;2209;48.982;8.406;2023-03-13T14:21:06;19.20;99.90
4390;DHT22;2209;48.982;8.406;2023-03-13T14:23:35;19.20;99.90
4390;DHT22;2209;48.982;8.406;2023-03-13T14:26:12;19.20;99.90
4390;DHT22;2209;48.982;8.406;2023-03-13T14:28:38;19.30;99.90
4390;DHT22;2209;48.982;8.406;2023-03-13T14:31:01;19.30;99.90
4390;DHT22;2209;48.982;8.406;2023-03-13T14:33:23;19.40;99.90
4390;DHT22;2209;48.982;8.406;2023-03-13T14:35:47;19.40;99.90
4390;DHT22;2209;48.982;8.406;2023-03-13T14:38:17;19.50;99.90
4390;DHT22;2209;48.982;8.406;2023-03-13T14:40:40;19.60;99.90
4390;DHT22;2209;48.982;8.406;2023-03-13T14:43:02;19.60;99.90
4390;DHT22;2209;48.982;8.406;2023-03-13T14:45:28;19.70;99.90
4390;DHT22;2209;48.982;8.406;2023-03-13T14:47:51;19.80;99.90
4390;DHT22;2209;48.982;8.406;2023-03-13T14:50:14;19.80;99.90
4390;DHT22;2209;48.982;8.406;2023-03-13T14:52:36;19.90;99.90
4390;DHT22;2209;48.982;8.406;2023-03-13T14:55:05;20.00;99.90
4390;DHT22;2209;48.982;8.406;2023-03-13T14:57:29;20.10;99.90
4390;DHT22;2209;48.982;8.406;2023-03-13T14:59:52;20.20;99.90
4390;DHT22;2209;48.982;8.406;2023-03-13T15:02:20;20.20;99.90
4390;DHT22;2209;48.982;8.406;2023-03-13T15:04:54;20.30;99.90
4390;DHT22;2209;48.982;8.406;2023-03-13T15:07:19;20.30;99.90
4390;DHT22;2209;48.982;8.406;2023-03-13T15:09:42;20.40;99.90
4390;DHT22;2209;48.982;8.406;2023-03-13T15:12:13;20.50;99.90
4390;DHT22;2209;48.982;8.406;2023-03-13T15:14:37;20.50;99.90
4390;DHT22;2209;48.982;8.406;2023-03-13T15:17:00;20.60;99.90
4390;DHT22;2209;48.982;8.406;2023-03-13T15:19:23;20.60;99.90
4390;DHT22;2209;48.982;8.406;2023-03-13T15:21:50;20.70;99.90
4390;DHT22;2209;48.982;8.406;2023-03-13T15:24:14;20.70;99.90
4390;DHT22;2209;48.982;8.406;2023-03-13T15:26:36;20.80;99.90
4390;DHT22;2209;48.982;8.406;2023-03-13T15:28:59;20.80;99.90
4390;DHT22;2209;48.982;8.406;2023-03-13T15:31:25;20.90;99.90
4390;DHT22;2209;48.982;8.406;2023-03-13T15:33:53;20.90;99.90
4390;DHT22;2209;48.982;8.406;2023-03-13T15:36:15;20.90;99.90
4390;DHT22;2209;48.982;8.406;2023-03-13T15:38:38;21.00;99.90
4390;DHT22;2209;48.982;8.406;2023-03-13T15:41:00;21.00;99.90
4390;DHT22;2209;48.982;8.406;2023-03-13T15:43:22;21.00;99.90
4390;DHT22;2209;48.982;8.406;2023-03-13T15:45:47;21.00;99.90
4390;DHT22;2209;48.982;8.406;2023-03-13T15:48:14;21.10;99.90
4390;DHT22;2209;48.982;8.406;2023-03-13T15:50:36;21.10;99.90
4390;DHT22;2209;48.982;8.406;2023-03-13T15:52:58;21.10;99.90
4390;DHT22;2209;48.982;8.406;2023-03-13T15:55:27;21.20;99.90
4390;DHT22;2209;48.982;8.406;2023-03-13T15:57:49;21.10;99.90